sensor_id;sensor_type;location;lat;lon;timestamp;P1;durP1;ratioP1;P2;durP2;ratioP2
70806;SDS011;58882;52.170;5.386;2022-09-03T00:08:27;6.13;;;1.70;;
70806;SDS011;58882;52.170;5.386;2022-09-03T00:16:53;5.28;;;2.00;;
70806;SDS011;58882;52.170;5.386;2022-09-03T00:20:00;4.60;;;1.95;;
70806;SDS011;58882;52.170;5.386;2022-09-03T00:22:40;4.95;;;2.17;;
70806;SDS011;58882;52.170;5.386;2022-09-03T00:25:44;4.72;;;1.90;;
70806;SDS011;58882;52.170;5.386;2022-09-03T00:28:19;3.95;;;1.80;;
70806;SDS011;58882;52.170;5.386;2022-09-03T00:31:24;5.03;;;1.83;;
70806;SDS011;58882;52.170;5.386;2022-09-03T00:34:28;3.75;;;1.85;;
70806;SDS011;58882;52.170;5.386;2022-09-03T00:37:33;6.90;;;2.00;;
70806;SDS011;58882;52.170;5.386;2022-09-03T00:40:14;5.70;;;1.80;;
70806;SDS011;58882;52.170;5.386;2022-09-03T00:43:21;6.43;;;1.90;;
70806;SDS011;58882;52.170;5.386;2022-09-03T00:46:11;7.45;;;2.22;;
70806;SDS011;58882;52.170;5.386;2022-09-03T00:49:27;4.30;;;1.80;;
70806;SDS011;58882;52.170;5.386;2022-09-03T00:58:13;2.20;;;1.67;;
70806;SDS011;58882;52.170;5.386;2022-09-03T01:07:48;3.40;;;1.92;;
70806;SDS011;58882;52.170;5.386;2022-09-03T01:14:30;3.63;;;1.77;;
70806;SDS011;58882;52.170;5.386;2022-09-03T01:29:23;3.95;;;1.67;;
70806;SDS011;58882;52.170;5.386;2022-09-03T01:32:35;4.45;;;1.83;;
70806;SDS011;58882;52.170;5.386;2022-09-03T01:35:19;5.00;;;1.80;;
70806;SDS011;58882;52.170;5.386;2022-09-03T01:44:39;6.03;;;1.90;;
70806;SDS011;58882;52.170;5.386;2022-09-03T01:47:30;3.92;;;1.95;;
70806;SDS011;58882;52.170;5.386;2022-09-03T01:50:41;5.60;;;2.03;;
70806;SDS011;58882;52.170;5.386;2022-09-03T01:54:05;4.15;;;1.73;;
70806;SDS011;58882;52.170;5.386;2022-09-03T02:00:41;3.17;;;1.80;;
70806;SDS011;58882;52.170;5.386;2022-09-03T02:03:24;3.03;;;1.80;;
70806;SDS011;58882;52.170;5.386;2022-09-03T02:06:20;6.13;;;1.90;;
70806;SDS011;58882;52.170;5.386;2022-09-03T02:09:00;4.38;;;1.83;;
70806;SDS011;58882;52.170;5.386;2022-09-03T02:11:55;6.00;;;1.88;;
70806;SDS011;58882;52.170;5.386;2022-09-03T02:14:45;4.28;;;1.80;;
70806;SDS011;58882;52.170;5.386;2022-09-03T02:17:33;4.70;;;1.88;;
70806;SDS011;58882;52.170;5.386;2022-09-03T02:20:09;3.90;;;1.83;;
70806;SDS011;58882;52.170;5.386;2022-09-03T02:23:09;3.63;;;1.95;;
70806;SDS011;58882;52.170;5.386;2022-09-03T02:25:44;4.50;;;2.03;;
70806;SDS011;58882;52.170;5.386;2022-09-03T02:28:42;5.55;;;1.60;;
70806;SDS011;58882;52.170;5.386;2022-09-03T02:31:23;4.65;;;1.60;;
70806;SDS011;58882;52.170;5.386;2022-09-03T02:34:17;3.42;;;1.63;;
70806;SDS011;58882;52.170;5.386;2022-09-03T02:36:57;4.10;;;1.83;;
70806;SDS011;58882;52.170;5.386;2022-09-03T02:39:44;5.72;;;1.73;;
70806;SDS011;58882;52.170;5.386;2022-09-03T02:42:24;8.32;;;2.10;;
70806;SDS011;58882;52.170;5.386;2022-09-03T02:45:27;5.30;;;1.80;;
70806;SDS011;58882;52.170;5.386;2022-09-03T02:50:57;4.97;;;1.70;;
70806;SDS011;58882;52.170;5.386;2022-09-03T02:53:46;3.47;;;1.90;;
70806;SDS011;58882;52.170;5.386;2022-09-03T02:56:33;5.97;;;1.60;;
70806;SDS011;58882;52.170;5.386;2022-09-03T02:59:13;6.13;;;2.10;;
70806;SDS011;58882;52.170;5.386;2022-09-03T03:02:08;4.15;;;1.73;;
70806;SDS011;58882;52.170;5.386;2022-09-03T03:04:49;4.07;;;1.75;;
70806;SDS011;58882;52.170;5.386;2022-09-03T03:07:36;4.85;;;1.60;;
70806;SDS011;58882;52.170;5.386;2022-09-03T03:10:19;3.15;;;1.70;;
70806;SDS011;58882;52.170;5.386;2022-09-03T03:13:06;5.15;;;1.80;;
70806;SDS011;58882;52.170;5.386;2022-09-03T03:15:46;3.40;;;1.50;;
70806;SDS011;58882;52.170;5.386;2022-09-03T03:18:34;4.47;;;1.80;;
70806;SDS011;58882;52.170;5.386;2022-09-03T03:21:14;3.58;;;1.70;;
70806;SDS011;58882;52.170;5.386;2022-09-03T03:24:03;3.08;;;1.70;;
70806;SDS011;58882;52.170;5.386;2022-09-03T03:26:43;2.85;;;1.65;;
70806;SDS011;58882;52.170;5.386;2022-09-03T03:29:37;5.05;;;2.05;;
70806;SDS011;58882;52.170;5.386;2022-09-03T03:32:18;5.72;;;1.60;;
70806;SDS011;58882;52.170;5.386;2022-09-03T03:35:12;3.47;;;1.80;;
70806;SDS011;58882;52.170;5.386;2022-09-03T03:37:52;4.80;;;1.67;;
70806;SDS011;58882;52.170;5.386;2022-09-03T03:40:39;3.45;;;1.75;;
70806;SDS011;58882;52.170;5.386;2022-09-03T03:43:19;4.35;;;1.80;;
70806;SDS011;58882;52.170;5.386;2022-09-03T03:46:06;4.63;;;1.90;;
70806;SDS011;58882;52.170;5.386;2022-09-03T03:48:46;3.88;;;1.70;;
70806;SDS011;58882;52.170;5.386;2022-09-03T03:51:34;4.18;;;1.70;;
70806;SDS011;58882;52.170;5.386;2022-09-03T03:54:22;6.15;;;1.85;;
70806;SDS011;58882;52.170;5.386;2022-09-03T03:57:16;5.90;;;1.70;;
70806;SDS011;58882;52.170;5.386;2022-09-03T03:59:58;3.28;;;1.77;;
70806;SDS011;58882;52.170;5.386;2022-09-03T04:02:48;7.97;;;1.75;;
70806;SDS011;58882;52.170;5.386;2022-09-03T04:05:28;3.90;;;2.00;;
70806;SDS011;58882;52.170;5.386;2022-09-03T04:08:27;3.13;;;1.70;;
70806;SDS011;58882;52.170;5.386;2022-09-03T04:11:09;3.60;;;1.60;;
70806;SDS011;58882;52.170;5.386;2022-09-03T04:13:58;3.95;;;1.75;;
70806;SDS011;58882;52.170;5.386;2022-09-03T04:16:38;8.45;;;1.80;;
70806;SDS011;58882;52.170;5.386;2022-09-03T04:19:25;3.67;;;1.73;;
70806;SDS011;58882;52.170;5.386;2022-09-03T04:22:27;6.32;;;1.60;;
70806;SDS011;58882;52.170;5.386;2022-09-03T04:25:14;3.65;;;1.70;;
70806;SDS011;58882;52.170;5.386;2022-09-03T04:27:54;6.75;;;1.80;;
70806;SDS011;58882;52.170;5.386;2022-09-03T04:30:42;4.10;;;1.80;;
70806;SDS011;58882;52.170;5.386;2022-09-03T04:33:23;4.30;;;1.80;;
70806;SDS011;58882;52.170;5.386;2022-09-03T04:36:18;3.47;;;1.70;;
70806;SDS011;58882;52.170;5.386;2022-09-03T04:39:00;3.80;;;1.55;;
70806;SDS011;58882;52.170;5.386;2022-09-03T04:41:54;6.25;;;1.80;;
70806;SDS011;58882;52.170;5.386;2022-09-03T04:44:27;2.83;;;1.63;;
70806;SDS011;58882;52.170;5.386;2022-09-03T04:47:24;3.60;;;1.52;;
70806;SDS011;58882;52.170;5.386;2022-09-03T04:49:57;4.88;;;1.90;;
70806;SDS011;58882;52.170;5.386;2022-09-03T04:52:54;6.05;;;1.90;;
70806;SDS011;58882;52.170;5.386;2022-09-03T04:55:46;7.68;;;1.90;;
70806;SDS011;58882;52.170;5.386;2022-09-03T04:58:26;6.03;;;1.90;;
70806;SDS011;58882;52.170;5.386;2022-09-03T05:01:23;7.25;;;1.85;;
70806;SDS011;58882;52.170;5.386;2022-09-03T05:03:59;5.18;;;1.80;;
70806;SDS011;58882;52.170;5.386;2022-09-03T05:06:54;8.05;;;1.80;;
70806;SDS011;58882;52.170;5.386;2022-09-03T05:09:34;3.65;;;1.70;;
70806;SDS011;58882;52.170;5.386;2022-09-03T05:12:21;6.18;;;2.10;;
70806;SDS011;58882;52.170;5.386;2022-09-03T05:15:02;5.80;;;2.20;;
70806;SDS011;58882;52.170;5.386;2022-09-03T05:17:56;4.97;;;2.10;;
70806;SDS011;58882;52.170;5.386;2022-09-03T05:20:40;6.30;;;1.83;;
70806;SDS011;58882;52.170;5.386;2022-09-03T05:23:27;7.57;;;2.45;;
70806;SDS011;58882;52.170;5.386;2022-09-03T05:26:13;6.25;;;1.80;;
70806;SDS011;58882;52.170;5.386;2022-09-03T05:29:05;7.05;;;1.80;;
70806;SDS011;58882;52.170;5.386;2022-09-03T05:31:39;12.70;;;1.83;;
70806;SDS011;58882;52.170;5.386;2022-09-03T05:34:33;5.10;;;1.70;;
70806;SDS011;58882;52.170;5.386;2022-09-03T05:37:13;5.78;;;1.70;;
70806;SDS011;58882;52.170;5.386;2022-09-03T05:40:07;6.07;;;1.95;;
70806;SDS011;58882;52.170;5.386;2022-09-03T05:42:53;6.68;;;1.75;;
70806;SDS011;58882;52.170;5.386;2022-09-03T05:45:48;5.90;;;1.65;;
70806;SDS011;58882;52.170;5.386;2022-09-03T05:48:28;10.93;;;1.65;;
70806;SDS011;58882;52.170;5.386;2022-09-03T05:51:16;5.80;;;1.75;;
70806;SDS011;58882;52.170;5.386;2022-09-03T05:54:04;6.35;;;1.60;;
70806;SDS011;58882;52.170;5.386;2022-09-03T05:56:58;3.80;;;1.70;;
70806;SDS011;58882;52.170;5.386;2022-09-03T05:59:38;4.93;;;1.80;;
70806;SDS011;58882;52.170;5.386;2022-09-03T06:02:25;3.53;;;1.70;;
70806;SDS011;58882;52.170;5.386;2022-09-03T06:05:05;5.97;;;1.80;;
70806;SDS011;58882;52.170;5.386;2022-09-03T06:07:52;7.10;;;1.80;;
70806;SDS011;58882;52.170;5.386;2022-09-03T06:10:32;5.57;;;1.70;;
70806;SDS011;58882;52.170;5.386;2022-09-03T06:13:20;5.97;;;1.48;;
70806;SDS011;58882;52.170;5.386;2022-09-03T06:16:00;7.43;;;1.73;;
70806;SDS011;58882;52.170;5.386;2022-09-03T06:18:49;3.90;;;1.80;;
70806;SDS011;58882;52.170;5.386;2022-09-03T06:21:30;4.10;;;1.70;;
70806;SDS011;58882;52.170;5.386;2022-09-03T06:24:19;5.82;;;1.65;;
70806;SDS011;58882;52.170;5.386;2022-09-03T06:27:02;3.45;;;1.67;;
70806;SDS011;58882;52.170;5.386;2022-09-03T06:29:56;2.75;;;1.33;;
70806;SDS011;58882;52.170;5.386;2022-09-03T06:32:46;5.07;;;1.60;;
70806;SDS011;58882;52.170;5.386;2022-09-03T06:35:34;5.43;;;1.58;;
70806;SDS011;58882;52.170;5.386;2022-09-03T06:38:15;3.80;;;1.73;;
70806;SDS011;58882;52.170;5.386;2022-09-03T06:41:06;2.80;;;1.65;;
70806;SDS011;58882;52.170;5.386;2022-09-03T06:43:52;3.80;;;1.60;;
70806;SDS011;58882;52.170;5.386;2022-09-03T06:46:42;3.05;;;1.48;;
70806;SDS011;58882;52.170;5.386;2022-09-03T06:49:22;5.35;;;1.50;;
70806;SDS011;58882;52.170;5.386;2022-09-03T06:52:10;5.32;;;1.60;;
70806;SDS011;58882;52.170;5.386;2022-09-03T06:54:50;3.58;;;1.50;;
70806;SDS011;58882;52.170;5.386;2022-09-03T06:57:44;3.22;;;1.55;;
70806;SDS011;58882;52.170;5.386;2022-09-03T07:00:26;2.88;;;1.40;;
70806;SDS011;58882;52.170;5.386;2022-09-03T07:03:13;3.25;;;1.33;;
70806;SDS011;58882;52.170;5.386;2022-09-03T07:05:46;4.18;;;1.35;;
70806;SDS011;58882;52.170;5.386;2022-09-03T07:08:40;2.30;;;1.30;;
70806;SDS011;58882;52.170;5.386;2022-09-03T07:11:15;3.47;;;1.60;;
70806;SDS011;58882;52.170;5.386;2022-09-03T07:14:12;2.50;;;1.40;;
70806;SDS011;58882;52.170;5.386;2022-09-03T07:16:53;5.45;;;1.30;;
70806;SDS011;58882;52.170;5.386;2022-09-03T07:19:40;3.25;;;1.30;;
70806;SDS011;58882;52.170;5.386;2022-09-03T07:22:20;2.15;;;1.33;;
70806;SDS011;58882;52.170;5.386;2022-09-03T07:25:10;4.20;;;1.58;;
70806;SDS011;58882;52.170;5.386;2022-09-03T07:27:50;2.78;;;1.30;;
70806;SDS011;58882;52.170;5.386;2022-09-03T07:30:37;1.85;;;1.10;;
70806;SDS011;58882;52.170;5.386;2022-09-03T07:33:17;2.95;;;1.30;;
70806;SDS011;58882;52.170;5.386;2022-09-03T07:36:05;2.65;;;1.30;;
70806;SDS011;58882;52.170;5.386;2022-09-03T07:38:48;3.30;;;1.13;;
70806;SDS011;58882;52.170;5.386;2022-09-03T07:41:35;3.08;;;1.30;;
70806;SDS011;58882;52.170;5.386;2022-09-03T07:44:16;2.47;;;1.20;;
70806;SDS011;58882;52.170;5.386;2022-09-03T07:47:11;2.47;;;1.40;;
70806;SDS011;58882;52.170;5.386;2022-09-03T07:49:45;2.40;;;1.27;;
70806;SDS011;58882;52.170;5.386;2022-09-03T07:52:39;2.58;;;1.30;;
70806;SDS011;58882;52.170;5.386;2022-09-03T07:55:12;2.55;;;1.30;;
70806;SDS011;58882;52.170;5.386;2022-09-03T07:58:06;2.20;;;1.20;;
70806;SDS011;58882;52.170;5.386;2022-09-03T08:00:39;3.42;;;1.20;;
70806;SDS011;58882;52.170;5.386;2022-09-03T08:03:36;3.08;;;1.27;;
70806;SDS011;58882;52.170;5.386;2022-09-03T08:06:18;3.28;;;1.15;;
70806;SDS011;58882;52.170;5.386;2022-09-03T08:09:07;7.60;;;1.30;;
70806;SDS011;58882;52.170;5.386;2022-09-03T08:11:50;4.15;;;1.33;;
70806;SDS011;58882;52.170;5.386;2022-09-03T08:14:37;4.28;;;1.35;;
70806;SDS011;58882;52.170;5.386;2022-09-03T08:17:11;2.55;;;1.20;;
70806;SDS011;58882;52.170;5.386;2022-09-03T08:20:05;3.55;;;1.50;;
70806;SDS011;58882;52.170;5.386;2022-09-03T08:22:45;4.03;;;1.20;;
70806;SDS011;58882;52.170;5.386;2022-09-03T08:25:32;3.28;;;1.20;;
70806;SDS011;58882;52.170;5.386;2022-09-03T08:28:05;1.88;;;1.10;;
70806;SDS011;58882;52.170;5.386;2022-09-03T08:31:10;1.90;;;1.23;;
70806;SDS011;58882;52.170;5.386;2022-09-03T08:33:53;3.40;;;1.15;;
70806;SDS011;58882;52.170;5.386;2022-09-03T08:36:41;3.45;;;1.30;;
70806;SDS011;58882;52.170;5.386;2022-09-03T08:39:22;2.33;;;1.27;;
70806;SDS011;58882;52.170;5.386;2022-09-03T08:45:00;2.95;;;1.30;;
70806;SDS011;58882;52.170;5.386;2022-09-03T08:50:44;2.67;;;1.30;;
70806;SDS011;58882;52.170;5.386;2022-09-03T08:53:43;3.63;;;1.20;;
70806;SDS011;58882;52.170;5.386;2022-09-03T08:56:37;2.20;;;1.13;;
70806;SDS011;58882;52.170;5.386;2022-09-03T08:59:20;2.50;;;1.27;;
70806;SDS011;58882;52.170;5.386;2022-09-03T09:02:16;2.80;;;1.23;;
70806;SDS011;58882;52.170;5.386;2022-09-03T09:05:16;3.58;;;1.30;;
70806;SDS011;58882;52.170;5.386;2022-09-03T09:23:30;1.80;;;1.20;;
70806;SDS011;58882;52.170;5.386;2022-09-03T09:26:22;3.58;;;1.20;;
70806;SDS011;58882;52.170;5.386;2022-09-03T09:29:03;2.90;;;1.20;;
70806;SDS011;58882;52.170;5.386;2022-09-03T09:32:01;3.53;;;1.30;;
70806;SDS011;58882;52.170;5.386;2022-09-03T09:34:37;2.97;;;1.20;;
70806;SDS011;58882;52.170;5.386;2022-09-03T09:37:32;2.15;;;1.10;;
70806;SDS011;58882;52.170;5.386;2022-09-03T09:43:24;2.60;;;1.15;;
70806;SDS011;58882;52.170;5.386;2022-09-03T09:46:04;3.90;;;1.10;;
70806;SDS011;58882;52.170;5.386;2022-09-03T09:49:28;2.67;;;1.35;;
70806;SDS011;58882;52.170;5.386;2022-09-03T09:52:11;1.92;;;1.10;;
70806;SDS011;58882;52.170;5.386;2022-09-03T09:55:07;4.72;;;1.17;;
70806;SDS011;58882;52.170;5.386;2022-09-03T09:58:10;2.38;;;1.30;;
70806;SDS011;58882;52.170;5.386;2022-09-03T10:01:03;2.45;;;1.35;;
70806;SDS011;58882;52.170;5.386;2022-09-03T10:03:57;3.25;;;1.33;;
70806;SDS011;58882;52.170;5.386;2022-09-03T10:06:39;3.63;;;1.30;;
70806;SDS011;58882;52.170;5.386;2022-09-03T10:09:32;3.25;;;1.50;;
70806;SDS011;58882;52.170;5.386;2022-09-03T10:12:15;3.30;;;1.30;;
70806;SDS011;58882;52.170;5.386;2022-09-03T10:15:19;3.15;;;1.17;;
70806;SDS011;58882;52.170;5.386;2022-09-03T10:18:42;2.25;;;1.00;;
70806;SDS011;58882;52.170;5.386;2022-09-03T10:24:46;1.70;;;1.13;;
70806;SDS011;58882;52.170;5.386;2022-09-03T10:27:50;2.85;;;1.17;;
70806;SDS011;58882;52.170;5.386;2022-09-03T10:30:39;4.10;;;1.17;;
70806;SDS011;58882;52.170;5.386;2022-09-03T10:33:58;3.58;;;1.30;;
70806;SDS011;58882;52.170;5.386;2022-09-03T10:36:50;3.97;;;1.20;;
70806;SDS011;58882;52.170;5.386;2022-09-03T10:39:55;2.50;;;1.30;;
70806;SDS011;58882;52.170;5.386;2022-09-03T10:45:42;2.83;;;1.13;;
70806;SDS011;58882;52.170;5.386;2022-09-03T10:51:31;2.58;;;1.27;;
70806;SDS011;58882;52.170;5.386;2022-09-03T10:54:40;2.25;;;1.20;;
70806;SDS011;58882;52.170;5.386;2022-09-03T11:00:46;2.38;;;1.23;;
70806;SDS011;58882;52.170;5.386;2022-09-03T11:07:04;1.92;;;1.20;;
70806;SDS011;58882;52.170;5.386;2022-09-03T11:13:12;2.25;;;1.10;;
70806;SDS011;58882;52.170;5.386;2022-09-03T11:16:31;3.25;;;1.10;;
70806;SDS011;58882;52.170;5.386;2022-09-03T11:19:15;4.13;;;1.30;;
70806;SDS011;58882;52.170;5.386;2022-09-03T11:22:06;2.78;;;1.15;;
70806;SDS011;58882;52.170;5.386;2022-09-03T11:24:55;2.00;;;1.10;;
70806;SDS011;58882;52.170;5.386;2022-09-03T11:34:06;2.55;;;1.10;;
70806;SDS011;58882;52.170;5.386;2022-09-03T11:37:05;3.90;;;1.40;;
70806;SDS011;58882;52.170;5.386;2022-09-03T11:40:14;4.43;;;1.20;;
70806;SDS011;58882;52.170;5.386;2022-09-03T11:43:04;2.72;;;1.20;;
70806;SDS011;58882;52.170;5.386;2022-09-03T11:49:10;2.03;;;1.20;;
70806;SDS011;58882;52.170;5.386;2022-09-03T11:52:00;4.07;;;1.27;;
70806;SDS011;58882;52.170;5.386;2022-09-03T11:54:50;2.22;;;1.27;;
70806;SDS011;58882;52.170;5.386;2022-09-03T11:57:46;2.53;;;1.30;;
70806;SDS011;58882;52.170;5.386;2022-09-03T12:00:26;2.83;;;1.20;;
70806;SDS011;58882;52.170;5.386;2022-09-03T12:09:58;1.65;;;1.10;;
70806;SDS011;58882;52.170;5.386;2022-09-03T12:12:42;1.25;;;1.10;;
70806;SDS011;58882;52.170;5.386;2022-09-03T12:15:39;2.20;;;1.20;;
70806;SDS011;58882;52.170;5.386;2022-09-03T12:18:34;2.72;;;1.25;;
70806;SDS011;58882;52.170;5.386;2022-09-03T12:21:22;2.10;;;1.27;;
70806;SDS011;58882;52.170;5.386;2022-09-03T12:23:57;3.72;;;1.20;;
70806;SDS011;58882;52.170;5.386;2022-09-03T12:26:56;2.92;;;1.40;;
70806;SDS011;58882;52.170;5.386;2022-09-03T12:29:37;4.47;;;1.33;;
70806;SDS011;58882;52.170;5.386;2022-09-03T12:32:35;3.78;;;1.27;;
70806;SDS011;58882;52.170;5.386;2022-09-03T12:35:17;2.13;;;1.40;;
70806;SDS011;58882;52.170;5.386;2022-09-03T12:38:27;2.80;;;1.33;;
70806;SDS011;58882;52.170;5.386;2022-09-03T12:41:28;3.70;;;1.35;;
70806;SDS011;58882;52.170;5.386;2022-09-03T12:44:22;3.53;;;1.10;;
70806;SDS011;58882;52.170;5.386;2022-09-03T12:47:11;2.25;;;1.30;;
70806;SDS011;58882;52.170;5.386;2022-09-03T12:50:23;3.78;;;1.35;;
70806;SDS011;58882;52.170;5.386;2022-09-03T12:53:04;3.33;;;1.33;;
70806;SDS011;58882;52.170;5.386;2022-09-03T12:55:51;7.78;;;1.55;;
70806;SDS011;58882;52.170;5.386;2022-09-03T12:58:40;11.10;;;1.60;;
70806;SDS011;58882;52.170;5.386;2022-09-03T13:01:43;5.10;;;1.40;;
70806;SDS011;58882;52.170;5.386;2022-09-03T13:04:23;4.50;;;1.30;;
70806;SDS011;58882;52.170;5.386;2022-09-03T13:07:22;5.18;;;1.60;;
70806;SDS011;58882;52.170;5.386;2022-09-03T13:10:06;2.38;;;1.30;;
70806;SDS011;58882;52.170;5.386;2022-09-03T13:13:02;3.80;;;1.30;;
70806;SDS011;58882;52.170;5.386;2022-09-03T13:19:04;3.20;;;1.23;;
70806;SDS011;58882;52.170;5.386;2022-09-03T13:31:42;3.95;;;1.55;;
70806;SDS011;58882;52.170;5.386;2022-09-03T13:34:31;2.70;;;1.23;;
70806;SDS011;58882;52.170;5.386;2022-09-03T13:37:36;2.65;;;1.38;;
70806;SDS011;58882;52.170;5.386;2022-09-03T13:40:24;2.67;;;1.20;;
70806;SDS011;58882;52.170;5.386;2022-09-03T13:43:27;2.60;;;1.42;;
70806;SDS011;58882;52.170;5.386;2022-09-03T13:46:23;3.55;;;1.50;;
70806;SDS011;58882;52.170;5.386;2022-09-03T13:53:16;2.33;;;1.40;;
70806;SDS011;58882;52.170;5.386;2022-09-03T13:56:54;2.03;;;1.20;;
70806;SDS011;58882;52.170;5.386;2022-09-03T13:59:57;2.20;;;1.40;;
70806;SDS011;58882;52.170;5.386;2022-09-03T14:05:46;3.67;;;1.33;;
70806;SDS011;58882;52.170;5.386;2022-09-03T14:15:21;4.78;;;1.52;;
70806;SDS011;58882;52.170;5.386;2022-09-03T14:18:34;7.65;;;2.10;;
70806;SDS011;58882;52.170;5.386;2022-09-03T14:21:21;7.18;;;2.22;;
70806;SDS011;58882;52.170;5.386;2022-09-03T14:27:23;32.30;;;2.67;;
70806;SDS011;58882;52.170;5.386;2022-09-03T14:33:09;19.20;;;2.72;;
70806;SDS011;58882;52.170;5.386;2022-09-03T14:36:25;11.45;;;2.30;;
70806;SDS011;58882;52.170;5.386;2022-09-03T14:39:29;18.27;;;2.38;;
70806;SDS011;58882;52.170;5.386;2022-09-03T14:42:38;12.85;;;2.45;;
70806;SDS011;58882;52.170;5.386;2022-09-03T14:58:44;7.72;;;2.00;;
70806;SDS011;58882;52.170;5.386;2022-09-03T15:01:32;8.13;;;2.08;;
70806;SDS011;58882;52.170;5.386;2022-09-03T15:07:27;8.27;;;2.00;;
70806;SDS011;58882;52.170;5.386;2022-09-03T15:10:37;7.57;;;2.00;;
70806;SDS011;58882;52.170;5.386;2022-09-03T15:13:34;6.43;;;2.00;;
70806;SDS011;58882;52.170;5.386;2022-09-03T15:19:40;3.97;;;2.00;;
70806;SDS011;58882;52.170;5.386;2022-09-03T15:22:56;4.78;;;2.78;;
70806;SDS011;58882;52.170;5.386;2022-09-03T15:28:49;4.05;;;2.08;;
70806;SDS011;58882;52.170;5.386;2022-09-03T15:37:51;5.32;;;2.00;;
70806;SDS011;58882;52.170;5.386;2022-09-03T15:43:27;4.45;;;2.30;;
70806;SDS011;58882;52.170;5.386;2022-09-03T15:46:26;3.78;;;1.95;;
70806;SDS011;58882;52.170;5.386;2022-09-03T15:49:31;5.82;;;2.00;;
70806;SDS011;58882;52.170;5.386;2022-09-03T15:55:37;3.58;;;2.10;;
70806;SDS011;58882;52.170;5.386;2022-09-03T15:58:28;4.03;;;2.00;;
70806;SDS011;58882;52.170;5.386;2022-09-03T16:01:19;4.20;;;2.13;;
70806;SDS011;58882;52.170;5.386;2022-09-03T16:04:50;5.72;;;1.98;;
70806;SDS011;58882;52.170;5.386;2022-09-03T16:07:32;4.07;;;2.35;;
70806;SDS011;58882;52.170;5.386;2022-09-03T16:10:44;3.83;;;2.30;;
70806;SDS011;58882;52.170;5.386;2022-09-03T16:20:13;5.13;;;2.35;;
70806;SDS011;58882;52.170;5.386;2022-09-03T16:25:55;4.32;;;2.10;;
70806;SDS011;58882;52.170;5.386;2022-09-03T16:28:51;3.30;;;2.10;;
70806;SDS011;58882;52.170;5.386;2022-09-03T16:43:52;3.80;;;2.30;;
70806;SDS011;58882;52.170;5.386;2022-09-03T16:49:39;2.95;;;2.20;;
70806;SDS011;58882;52.170;5.386;2022-09-03T17:11:55;4.40;;;2.40;;
70806;SDS011;58882;52.170;5.386;2022-09-03T17:18:27;3.95;;;2.20;;
70806;SDS011;58882;52.170;5.386;2022-09-03T17:21:04;4.35;;;2.33;;
70806;SDS011;58882;52.170;5.386;2022-09-03T17:36:30;5.70;;;2.40;;
70806;SDS011;58882;52.170;5.386;2022-09-03T17:48:10;4.00;;;2.20;;
70806;SDS011;58882;52.170;5.386;2022-09-03T17:51:57;4.38;;;2.45;;
70806;SDS011;58882;52.170;5.386;2022-09-03T17:57:31;3.30;;;2.13;;
70806;SDS011;58882;52.170;5.386;2022-09-03T18:04:01;3.72;;;2.20;;
70806;SDS011;58882;52.170;5.386;2022-09-03T18:07:05;4.72;;;2.10;;
70806;SDS011;58882;52.170;5.386;2022-09-03T18:13:14;4.93;;;2.40;;
70806;SDS011;58882;52.170;5.386;2022-09-03T18:16:31;3.70;;;2.42;;
70806;SDS011;58882;52.170;5.386;2022-09-03T18:19:37;3.30;;;2.25;;
70806;SDS011;58882;52.170;5.386;2022-09-03T18:26:33;4.00;;;2.50;;
70806;SDS011;58882;52.170;5.386;2022-09-03T18:29:40;5.45;;;2.55;;
70806;SDS011;58882;52.170;5.386;2022-09-03T18:32:50;3.80;;;2.40;;
70806;SDS011;58882;52.170;5.386;2022-09-03T18:35:43;3.40;;;2.30;;
70806;SDS011;58882;52.170;5.386;2022-09-03T18:39:42;4.15;;;2.47;;
70806;SDS011;58882;52.170;5.386;2022-09-03T18:42:24;5.13;;;2.33;;
70806;SDS011;58882;52.170;5.386;2022-09-03T18:49:27;4.10;;;2.50;;
70806;SDS011;58882;52.170;5.386;2022-09-03T18:52:58;5.47;;;2.55;;
70806;SDS011;58882;52.170;5.386;2022-09-03T19:06:47;6.00;;;2.63;;
70806;SDS011;58882;52.170;5.386;2022-09-03T19:10:02;5.30;;;2.80;;
70806;SDS011;58882;52.170;5.386;2022-09-03T19:13:35;5.82;;;2.53;;
70806;SDS011;58882;52.170;5.386;2022-09-03T19:16:47;4.78;;;2.58;;
70806;SDS011;58882;52.170;5.386;2022-09-03T19:20:27;4.40;;;2.40;;
70806;SDS011;58882;52.170;5.386;2022-09-03T19:23:27;4.07;;;2.40;;
70806;SDS011;58882;52.170;5.386;2022-09-03T19:30:47;5.20;;;2.60;;
70806;SDS011;58882;52.170;5.386;2022-09-03T19:47:59;6.85;;;2.90;;
70806;SDS011;58882;52.170;5.386;2022-09-03T19:51:38;5.00;;;2.70;;
70806;SDS011;58882;52.170;5.386;2022-09-03T19:55:01;6.00;;;2.80;;
70806;SDS011;58882;52.170;5.386;2022-09-03T19:58:15;4.88;;;2.78;;
70806;SDS011;58882;52.170;5.386;2022-09-03T20:01:32;8.70;;;2.95;;
70806;SDS011;58882;52.170;5.386;2022-09-03T20:04:34;4.45;;;2.90;;
70806;SDS011;58882;52.170;5.386;2022-09-03T20:10:37;7.10;;;3.08;;
70806;SDS011;58882;52.170;5.386;2022-09-03T20:13:33;8.63;;;3.20;;
70806;SDS011;58882;52.170;5.386;2022-09-03T20:16:38;9.57;;;3.50;;
70806;SDS011;58882;52.170;5.386;2022-09-03T20:26:34;6.70;;;3.00;;
70806;SDS011;58882;52.170;5.386;2022-09-03T20:29:57;6.72;;;3.30;;
70806;SDS011;58882;52.170;5.386;2022-09-03T20:35:42;9.55;;;4.63;;
70806;SDS011;58882;52.170;5.386;2022-09-03T20:42:08;9.98;;;3.80;;
70806;SDS011;58882;52.170;5.386;2022-09-03T20:48:09;10.90;;;4.05;;
70806;SDS011;58882;52.170;5.386;2022-09-03T20:51:19;7.55;;;4.10;;
70806;SDS011;58882;52.170;5.386;2022-09-03T20:54:13;8.25;;;3.97;;
70806;SDS011;58882;52.170;5.386;2022-09-03T21:03:13;9.02;;;3.80;;
70806;SDS011;58882;52.170;5.386;2022-09-03T21:06:21;7.38;;;3.40;;
70806;SDS011;58882;52.170;5.386;2022-09-03T21:09:32;9.48;;;3.97;;
70806;SDS011;58882;52.170;5.386;2022-09-03T21:12:26;7.15;;;3.67;;
70806;SDS011;58882;52.170;5.386;2022-09-03T21:15:43;6.35;;;3.45;;
70806;SDS011;58882;52.170;5.386;2022-09-03T21:18:44;8.30;;;3.80;;
70806;SDS011;58882;52.170;5.386;2022-09-03T21:22:32;8.30;;;3.75;;
70806;SDS011;58882;52.170;5.386;2022-09-03T21:24:50;6.68;;;3.88;;
70806;SDS011;58882;52.170;5.386;2022-09-03T21:27:37;7.60;;;3.65;;
70806;SDS011;58882;52.170;5.386;2022-09-03T21:30:30;12.38;;;4.00;;
70806;SDS011;58882;52.170;5.386;2022-09-03T21:33:20;7.80;;;4.30;;
70806;SDS011;58882;52.170;5.386;2022-09-03T21:36:19;10.93;;;4.95;;
70806;SDS011;58882;52.170;5.386;2022-09-03T21:39:11;8.65;;;4.38;;
70806;SDS011;58882;52.170;5.386;2022-09-03T21:42:23;8.88;;;4.75;;
70806;SDS011;58882;52.170;5.386;2022-09-03T21:48:23;7.82;;;4.20;;
70806;SDS011;58882;52.170;5.386;2022-09-03T21:54:22;8.95;;;4.55;;
70806;SDS011;58882;52.170;5.386;2022-09-03T22:00:17;9.15;;;4.28;;
70806;SDS011;58882;52.170;5.386;2022-09-03T22:03:08;10.07;;;5.10;;
70806;SDS011;58882;52.170;5.386;2022-09-03T22:06:14;10.50;;;4.57;;
70806;SDS011;58882;52.170;5.386;2022-09-03T22:09:11;11.38;;;4.82;;
70806;SDS011;58882;52.170;5.386;2022-09-03T22:15:07;8.90;;;5.30;;
70806;SDS011;58882;52.170;5.386;2022-09-03T22:18:20;10.43;;;5.40;;
70806;SDS011;58882;52.170;5.386;2022-09-03T22:27:32;11.93;;;5.40;;
70806;SDS011;58882;52.170;5.386;2022-09-03T22:30:36;10.20;;;5.07;;
70806;SDS011;58882;52.170;5.386;2022-09-03T22:33:29;10.65;;;5.72;;
70806;SDS011;58882;52.170;5.386;2022-09-03T22:36:29;9.40;;;5.28;;
70806;SDS011;58882;52.170;5.386;2022-09-03T22:45:33;8.77;;;4.50;;
70806;SDS011;58882;52.170;5.386;2022-09-03T22:48:34;12.75;;;5.38;;
70806;SDS011;58882;52.170;5.386;2022-09-03T22:58:14;10.73;;;6.35;;
70806;SDS011;58882;52.170;5.386;2022-09-03T23:01:17;10.15;;;6.53;;
70806;SDS011;58882;52.170;5.386;2022-09-03T23:10:06;10.95;;;7.43;;
70806;SDS011;58882;52.170;5.386;2022-09-03T23:13:09;16.30;;;8.32;;
70806;SDS011;58882;52.170;5.386;2022-09-03T23:15:57;14.40;;;7.30;;
70806;SDS011;58882;52.170;5.386;2022-09-03T23:18:53;21.45;;;7.53;;
70806;SDS011;58882;52.170;5.386;2022-09-03T23:21:37;11.52;;;7.22;;